createdAt,value
2018-02-06T00:00:35.696Z,16.20
2018-02-06T00:03:03.238Z,23.67
2018-02-06T00:05:31.563Z,20.07
2018-02-06T00:07:59.102Z,25.17
2018-02-06T00:10:26.679Z,19.05
2018-02-06T00:12:54.226Z,20.27
2018-02-06T00:15:21.801Z,23.15
2018-02-06T00:17:49.357Z,21.17
2018-02-06T00:20:17.695Z,21.58
2018-02-06T00:22:50.118Z,25.17
2018-02-06T00:25:17.699Z,20.27
2018-02-06T00:27:46.030Z,18.33
2018-02-06T00:30:14.381Z,20.17
2018-02-06T00:32:41.934Z,20.45
2018-02-06T00:35:10.262Z,18.35
2018-02-06T00:37:37.831Z,22.13
2018-02-06T00:40:05.418Z,19.73
2018-02-06T00:42:32.992Z,19.40
2018-02-06T00:45:00.575Z,16.92
2018-02-06T00:47:28.113Z,23.42
2018-02-06T00:49:56.442Z,20.33
2018-02-06T00:52:24.212Z,17.58
2018-02-06T00:54:51.868Z,20.87
2018-02-06T00:57:19.414Z,20.17
2018-02-06T00:59:47.218Z,21.87
2018-02-06T01:02:14.786Z,23.38
2018-02-06T01:04:42.402Z,22.65
2018-02-06T01:07:09.942Z,20.23
2018-02-06T01:09:37.802Z,22.15
2018-02-06T01:12:06.153Z,23.37
2018-02-06T01:14:34.481Z,27.02
2018-02-06T01:17:02.026Z,25.40
2018-02-06T01:19:29.599Z,26.00
2018-02-06T01:21:57.145Z,29.75
2018-02-06T01:24:24.710Z,27.05
2018-02-06T01:26:52.322Z,22.40
2018-02-06T01:29:19.897Z,24.27
2018-02-06T01:31:47.472Z,27.73
2018-02-06T01:34:15.429Z,27.30
2018-02-06T01:36:43.782Z,30.42
2018-02-06T01:39:11.757Z,24.73
2018-02-06T01:41:39.370Z,25.75
2018-02-06T01:44:07.098Z,22.50
2018-02-06T01:46:35.449Z,21.20
2018-02-06T01:49:02.998Z,23.58
2018-02-06T01:51:30.566Z,28.20
2018-02-06T01:53:58.119Z,23.27
2018-02-06T01:56:25.934Z,26.70
2018-02-06T01:58:53.744Z,25.40
2018-02-06T02:01:21.310Z,24.92
2018-02-06T02:03:49.067Z,27.50
2018-02-06T02:06:16.639Z,28.67
2018-02-06T02:08:44.207Z,29.70
2018-02-06T02:11:11.778Z,24.83
2018-02-06T02:13:39.324Z,27.53
2018-02-06T02:16:06.898Z,24.10
2018-02-06T02:18:34.441Z,23.77
2018-02-06T02:21:02.011Z,23.15
2018-02-06T02:23:29.545Z,22.23
2018-02-06T02:25:57.098Z,26.57
2018-02-06T02:28:24.637Z,21.92
2018-02-06T02:30:52.208Z,28.80
2018-02-06T02:33:19.773Z,25.83
2018-02-06T02:35:47.360Z,25.75
2018-02-06T02:38:14.936Z,22.33
2018-02-06T02:40:42.567Z,23.25
2018-02-06T04:38:48.598Z,26.95
2018-02-06T04:41:16.140Z,27.67
2018-02-06T04:43:44.470Z,24.80
2018-02-06T04:46:12.022Z,21.48
2018-02-06T04:48:39.596Z,26.33
2018-02-06T04:51:07.181Z,31.73
2018-02-06T04:53:35.512Z,26.70
2018-02-06T04:56:03.825Z,29.33
2018-02-06T04:58:31.397Z,27.67
2018-02-06T05:00:59.702Z,29.23
2018-02-06T05:03:27.241Z,26.20
2018-02-06T05:05:55.572Z,25.95
2018-02-06T05:08:23.119Z,30.52
2018-02-06T05:10:50.689Z,22.30
2018-02-06T05:13:18.231Z,32.83
2018-02-06T05:15:45.798Z,31.13
2018-02-06T05:18:13.330Z,23.20
2018-02-06T05:20:40.893Z,27.13
2018-02-06T05:23:08.441Z,26.87
2018-02-06T05:25:36.771Z,26.45
2018-02-06T05:28:04.313Z,27.98
2018-02-06T05:30:31.882Z,28.65
2018-02-06T05:32:59.434Z,31.87
2018-02-06T05:35:27.011Z,29.60
2018-02-06T05:37:54.554Z,25.73
2018-02-06T05:40:22.127Z,26.87
2018-02-06T05:42:50.812Z,31.83
2018-02-06T05:45:19.197Z,26.35
2018-02-06T05:47:46.732Z,31.35
2018-02-06T05:50:14.297Z,30.30
2018-02-06T05:52:41.913Z,26.55
2018-02-06T05:55:10.218Z,30.85
2018-02-06T05:57:37.777Z,32.22
2018-02-06T06:00:05.362Z,29.70
2018-02-06T06:02:32.927Z,30.02
2018-02-06T06:05:00.470Z,33.50
2018-02-06T06:07:28.038Z,28.90
2018-02-06T06:09:55.578Z,29.20
2018-02-06T06:12:23.142Z,29.98
2018-02-06T06:14:50.682Z,29.00
2018-02-06T06:17:18.258Z,35.92
2018-02-06T06:19:45.839Z,31.77
2018-02-06T06:22:13.426Z,31.53
2018-02-06T06:24:41.137Z,30.48
2018-02-06T06:27:08.735Z,30.77
2018-02-06T06:29:36.271Z,31.75
2018-02-06T06:52:27.019Z,35.42
2018-02-06T06:54:54.562Z,38.15
2018-02-06T06:57:22.126Z,37.70
2018-02-06T06:59:49.671Z,35.80
2018-02-06T07:02:17.255Z,34.58
2018-02-06T07:04:44.797Z,36.30
2018-02-06T07:07:12.357Z,34.53
2018-02-06T07:09:39.906Z,33.35
2018-02-06T07:12:08.231Z,35.80
2018-02-06T07:14:35.790Z,39.70
2018-02-06T07:17:03.364Z,32.05
2018-02-06T07:19:30.896Z,32.03
2018-02-06T07:21:58.456Z,44.73
2018-02-06T07:24:26.004Z,33.47
2018-02-06T07:26:53.558Z,38.10
2018-02-06T07:29:21.094Z,38.30
2018-02-06T07:31:49.434Z,36.72
2018-02-06T07:34:16.972Z,38.23
2018-02-06T07:36:44.539Z,36.85
2018-02-06T07:39:12.083Z,35.40
2018-02-06T07:41:39.662Z,36.40
2018-02-06T07:44:07.973Z,33.67
2018-02-06T07:46:35.542Z,40.10
2018-02-06T07:49:03.842Z,37.00
2018-02-06T07:51:31.415Z,38.60
2018-02-06T07:53:58.981Z,34.77
2018-02-06T07:56:26.546Z,37.80
2018-02-06T07:58:54.091Z,38.70
2018-02-06T08:01:21.671Z,38.38
2018-02-06T08:03:49.217Z,45.70
2018-02-06T08:06:16.782Z,35.93
2018-02-06T08:08:44.317Z,41.10
2018-02-06T08:11:11.877Z,39.83
2018-02-06T08:13:40.178Z,32.80
2018-02-06T08:16:07.739Z,37.67
2018-02-06T08:18:35.279Z,36.00
2018-02-06T08:21:02.847Z,37.73
2018-02-06T08:23:30.383Z,35.23
2018-02-06T08:25:58.718Z,34.43
2018-02-06T08:28:26.253Z,39.27
2018-02-06T08:30:53.819Z,34.53
2018-02-06T08:33:21.355Z,34.67
2018-02-06T08:35:48.891Z,37.13
2018-02-06T08:38:17.211Z,34.13
2018-02-06T08:40:44.743Z,36.93
2018-02-06T08:43:12.314Z,34.78
2018-02-06T08:45:39.855Z,36.80
2018-02-06T08:48:08.184Z,41.83
2018-02-06T08:50:35.727Z,43.63
2018-02-06T08:53:03.302Z,36.00
2018-02-06T08:55:30.847Z,39.35
2018-02-06T08:57:58.422Z,40.30
2018-02-06T09:00:25.970Z,33.43
2018-02-06T09:02:53.527Z,37.80
2018-02-06T09:05:21.071Z,35.90
2018-02-06T09:07:48.648Z,32.93
2018-02-06T09:10:16.186Z,34.15
2018-02-06T09:12:44.502Z,34.63
2018-02-06T09:15:12.035Z,32.33
2018-02-06T09:17:39.585Z,37.87
2018-02-06T09:20:07.123Z,33.73
2018-02-06T09:22:35.445Z,29.83
2018-02-06T09:25:02.982Z,41.70
2018-02-06T09:27:30.537Z,37.67
2018-02-06T09:29:58.075Z,36.57
2018-02-06T09:32:26.428Z,33.60
2018-02-06T09:34:53.976Z,35.80
2018-02-06T09:37:21.506Z,30.60
2018-02-06T09:39:49.076Z,31.70
2018-02-06T09:42:16.602Z,30.60
2018-02-06T09:44:44.930Z,28.57
2018-02-06T09:47:12.454Z,32.17
2018-02-06T09:49:39.998Z,36.80
2018-02-06T09:52:08.300Z,33.17
2018-02-06T09:54:35.853Z,36.53
2018-02-06T09:57:03.394Z,30.20
2018-02-06T09:59:31.724Z,34.57
2018-02-06T10:01:59.246Z,29.67
2018-02-06T10:04:26.806Z,33.00
2018-02-06T10:06:54.353Z,32.90
2018-02-06T10:09:22.674Z,32.07
2018-02-06T10:11:50.205Z,31.43
2018-02-06T10:14:17.770Z,29.37
2018-02-06T10:16:45.313Z,29.47
2018-02-06T10:19:13.633Z,28.77
2018-02-06T10:21:41.165Z,30.07
2018-02-06T10:24:08.690Z,31.17
2018-02-06T10:26:36.243Z,29.67
2018-02-06T10:29:03.773Z,34.50
2018-02-06T10:31:31.322Z,36.57
2018-02-06T10:33:58.859Z,26.43
2018-02-06T10:36:26.410Z,34.13
2018-02-06T10:38:54.702Z,31.00
2018-02-06T10:41:22.262Z,33.13
2018-02-06T10:43:49.801Z,28.27
2018-02-06T10:46:18.131Z,29.87
2018-02-06T10:48:45.672Z,28.40
2018-02-06T10:51:13.232Z,32.73
2018-02-06T10:53:40.763Z,28.10
2018-02-06T10:56:08.324Z,30.63
2018-02-06T10:58:36.623Z,32.13
2018-02-06T11:01:04.902Z,31.43
2018-02-06T11:03:32.618Z,31.87
2018-02-06T11:06:00.217Z,29.13
2018-02-06T11:08:27.750Z,27.17
2018-02-06T11:10:56.050Z,29.43
2018-02-06T11:13:23.606Z,29.03
2018-02-06T11:15:51.138Z,32.43
2018-02-06T11:18:19.473Z,32.10
2018-02-06T11:20:47.006Z,27.33
2018-02-06T11:23:14.554Z,31.00
2018-02-06T11:25:43.390Z,30.57
2018-02-06T11:28:11.004Z,30.80
2018-02-06T11:30:39.293Z,32.27
2018-02-06T11:33:06.849Z,30.30
2018-02-06T11:35:34.387Z,32.90
2018-02-06T11:38:02.962Z,31.57
2018-02-06T11:40:30.498Z,29.43
2018-02-06T11:42:58.056Z,28.30
2018-02-06T11:45:25.587Z,29.63
2018-02-06T11:47:53.189Z,27.17
2018-02-06T11:50:20.766Z,31.33
2018-02-06T11:52:49.087Z,30.27
2018-02-06T11:55:16.614Z,35.10
2018-02-06T11:57:44.946Z,31.80
2018-02-06T12:00:12.479Z,33.47
2018-02-06T12:02:40.057Z,25.90
2018-02-06T12:05:07.626Z,29.23
2018-02-06T12:07:35.197Z,30.57
2018-02-06T12:10:02.729Z,26.00
2018-02-06T12:12:30.286Z,33.97
2018-02-06T12:14:57.814Z,29.30
2018-02-06T12:17:26.150Z,31.33
2018-02-06T12:19:53.683Z,29.37
2018-02-06T12:22:21.310Z,29.83
2018-02-06T12:24:49.613Z,31.23
2018-02-06T12:27:17.969Z,29.77
2018-02-06T12:29:45.536Z,29.73
2018-02-06T12:32:13.853Z,27.67
2018-02-06T12:34:41.385Z,30.33
2018-02-06T12:37:08.931Z,30.87
2018-02-06T12:39:36.468Z,34.67
2018-02-06T12:42:04.788Z,34.20
2018-02-06T12:44:32.322Z,29.90
2018-02-06T12:47:00.643Z,32.03
2018-02-06T12:49:28.173Z,29.43
2018-02-06T12:51:55.735Z,31.63
2018-02-06T12:54:23.266Z,27.20
2018-02-06T12:56:51.562Z,34.63
2018-02-06T12:59:19.113Z,27.77
2018-02-06T13:01:47.413Z,32.53
2018-02-06T13:04:14.967Z,29.13
2018-02-06T13:06:42.495Z,32.80
2018-02-06T13:09:10.819Z,31.23
2018-02-06T13:11:38.342Z,30.03
2018-02-06T13:14:06.661Z,32.10
2018-02-06T13:16:34.193Z,31.80
2018-02-06T13:19:01.748Z,31.30
2018-02-06T13:21:29.282Z,32.40
2018-02-06T13:23:56.833Z,30.03
2018-02-06T13:26:24.372Z,32.23
2018-02-06T13:28:51.931Z,36.60
2018-02-06T13:31:19.473Z,32.27
2018-02-06T13:33:47.604Z,29.27
2018-02-06T13:36:15.914Z,29.83
2018-02-06T13:38:43.465Z,29.73
2018-02-06T13:41:10.992Z,27.27
2018-02-06T13:43:38.541Z,31.40
2018-02-06T13:46:06.070Z,31.33
2018-02-06T13:48:33.658Z,31.53
2018-02-06T13:51:01.979Z,31.23
2018-02-06T13:53:29.537Z,28.63
2018-02-06T13:55:57.086Z,28.63
2018-02-06T13:58:24.646Z,28.87
2018-02-06T14:00:52.944Z,30.17
2018-02-06T14:03:20.499Z,31.60
2018-02-06T14:05:48.094Z,35.80
2018-02-06T14:08:15.657Z,30.10
2018-02-06T14:10:43.191Z,30.90
2018-02-06T14:13:10.885Z,34.20
2018-02-06T14:15:38.464Z,32.33
2018-02-06T14:18:06.203Z,29.03
2018-02-06T14:20:33.744Z,30.10
2018-02-06T14:23:01.302Z,35.30
2018-02-06T14:25:29.597Z,31.20
2018-02-06T14:27:57.153Z,28.90
2018-02-06T14:30:24.770Z,31.57
2018-02-06T14:32:53.091Z,27.13
2018-02-06T14:35:20.670Z,31.73
2018-02-06T14:37:48.226Z,32.00
2018-02-06T14:40:15.764Z,34.70
2018-02-06T14:42:43.322Z,31.00
2018-02-06T14:45:10.863Z,33.70
2018-02-06T14:47:38.418Z,33.50
2018-02-06T14:50:06.273Z,31.67
2018-02-06T14:52:34.597Z,28.83
2018-02-06T14:55:02.125Z,34.57
2018-02-06T14:57:29.662Z,36.00
2018-02-06T14:59:58.065Z,32.07
2018-02-06T15:02:25.606Z,33.07
2018-02-06T15:07:47.389Z,30.40
2018-02-06T15:10:14.944Z,37.40
2018-02-06T15:12:42.504Z,34.33
2018-02-06T15:15:10.051Z,33.00
2018-02-06T15:17:37.606Z,35.00
2018-02-06T15:20:05.245Z,33.73
2018-02-06T15:22:32.798Z,31.63
2018-02-06T15:25:01.135Z,31.20
2018-02-06T15:27:28.669Z,33.03
2018-02-06T15:29:56.230Z,37.87
2018-02-06T15:32:23.758Z,36.07
2018-02-06T15:34:52.117Z,36.40
2018-02-06T15:37:19.642Z,35.17
2018-02-06T15:39:47.202Z,38.20
2018-02-06T15:42:15.498Z,37.00
2018-02-06T15:44:43.054Z,38.00
2018-02-06T15:47:10.586Z,39.40
2018-02-06T15:49:38.142Z,36.23
2018-02-06T15:52:06.454Z,36.87
2018-02-06T15:54:34.039Z,35.80
2018-02-06T15:57:01.568Z,31.60
2018-02-06T15:59:29.135Z,39.40
2018-02-06T16:01:56.675Z,36.43
2018-02-06T16:04:24.245Z,39.10
2018-02-06T16:06:51.786Z,34.20
2018-02-06T16:09:19.336Z,33.80
2018-02-06T16:11:46.973Z,36.83
2018-02-06T16:14:15.317Z,35.53
2018-02-06T16:16:42.839Z,35.30
2018-02-06T16:19:10.393Z,33.57
2018-02-06T16:24:31.857Z,37.33
2018-02-06T16:26:59.382Z,41.10
2018-02-06T16:29:26.945Z,34.57
2018-02-06T16:31:54.489Z,35.57
2018-02-06T16:34:22.814Z,35.33
2018-02-06T16:36:50.342Z,37.93
2018-02-06T16:39:17.902Z,40.60
2018-02-06T16:41:45.441Z,38.40
2018-02-06T16:44:13.765Z,38.37
2018-02-06T16:46:41.372Z,34.67
2018-02-06T16:49:08.929Z,36.97
2018-02-06T16:51:37.258Z,35.57
2018-02-06T16:54:04.814Z,37.53
2018-02-06T16:56:32.342Z,41.03
2018-02-06T16:59:00.661Z,38.80
2018-02-06T17:01:28.189Z,45.27
2018-02-06T17:03:56.509Z,36.90
2018-02-06T17:06:24.047Z,36.70
2018-02-06T17:08:51.608Z,36.63
2018-02-06T17:11:19.135Z,38.20
2018-02-06T17:13:47.449Z,33.90
2018-02-06T17:16:14.990Z,37.47
2018-02-06T17:18:42.548Z,35.80
2018-02-06T17:21:10.078Z,42.13
2018-02-06T17:23:38.400Z,32.10
2018-02-06T17:26:05.930Z,36.97
2018-02-06T17:28:34.250Z,38.67
2018-02-06T17:31:01.779Z,38.73
2018-02-06T17:33:29.333Z,35.50
2018-02-06T17:35:56.871Z,41.00
2018-02-06T17:38:25.190Z,33.17
2018-02-06T17:40:52.717Z,37.13
2018-02-06T17:43:21.062Z,38.67
2018-02-06T17:45:48.585Z,37.50
2018-02-06T17:48:16.150Z,36.97
2018-02-06T17:50:44.048Z,40.70
2018-02-06T17:53:12.861Z,41.63
2018-02-06T17:55:41.266Z,40.57
2018-02-06T17:58:08.853Z,36.37
2018-02-06T18:00:37.251Z,42.03
2018-02-06T18:03:04.795Z,35.33
2018-02-06T18:05:32.361Z,43.00
2018-02-06T18:07:59.894Z,41.27
2018-02-06T18:10:27.446Z,39.47
2018-02-06T18:12:55.210Z,44.30
2018-02-06T18:15:22.784Z,39.13
2018-02-06T18:17:50.310Z,39.60
2018-02-06T18:20:18.638Z,46.87
2018-02-06T18:22:46.166Z,42.40
2018-02-06T18:25:13.878Z,42.37
2018-02-06T18:27:42.208Z,42.37
2018-02-06T18:30:10.526Z,41.07
2018-02-06T18:32:38.089Z,41.43
2018-02-06T18:35:05.651Z,41.83
2018-02-06T18:37:33.181Z,44.80
2018-02-06T18:40:00.742Z,37.53
2018-02-06T18:42:28.290Z,43.50
2018-02-06T18:44:55.850Z,47.77
2018-02-06T18:47:23.387Z,41.53
2018-02-06T18:49:51.705Z,46.00
2018-02-06T18:52:19.247Z,44.80
2018-02-06T18:54:46.839Z,46.27
2018-02-06T18:57:15.139Z,46.10
2018-02-06T18:59:42.705Z,44.70
2018-02-06T19:02:10.229Z,45.10
2018-02-06T19:04:37.786Z,47.97
2018-02-06T19:07:05.313Z,44.40
2018-02-06T19:09:32.870Z,44.77
2018-02-06T19:12:01.162Z,48.50
2018-02-06T19:14:28.729Z,46.17
2018-02-06T19:16:56.275Z,46.27
2018-02-06T19:19:23.861Z,51.33
2018-02-06T19:21:51.394Z,47.70
2018-02-06T19:24:18.962Z,47.40
2018-02-06T19:26:46.574Z,44.83
2018-02-06T19:29:14.234Z,47.40
2018-02-06T19:31:41.809Z,47.87
2018-02-06T19:34:09.374Z,54.83
2018-02-06T19:36:37.674Z,46.17
2018-02-06T19:39:05.258Z,48.07
2018-02-06T19:41:32.821Z,45.60
2018-02-06T19:44:00.385Z,43.57
2018-02-06T19:46:27.954Z,52.03
2018-02-06T19:48:55.518Z,52.93
2018-02-06T19:51:23.050Z,47.53
2018-02-06T19:53:50.719Z,57.23
2018-02-06T19:56:18.251Z,46.47
2018-02-06T19:58:45.826Z,44.65
2018-02-06T20:01:13.376Z,45.90
2018-02-06T20:03:40.937Z,46.53
2018-02-06T20:06:08.501Z,46.10
2018-02-06T20:08:36.030Z,53.87
2018-02-06T20:11:04.351Z,51.70
2018-02-06T20:13:31.886Z,44.70
2018-02-06T20:16:00.206Z,47.13
2018-02-06T20:18:27.742Z,44.40
2018-02-06T20:20:55.359Z,45.37
2018-02-06T20:23:23.892Z,46.50
2018-02-06T20:25:51.475Z,48.70
2018-02-06T20:28:19.016Z,47.63
2018-02-06T20:30:46.600Z,45.20
2018-02-06T20:33:14.137Z,48.63
2018-02-06T20:35:41.698Z,47.03
2018-02-06T20:38:09.234Z,54.00
2018-02-06T20:40:36.798Z,54.50
2018-02-06T20:43:04.343Z,47.00
2018-02-06T20:45:32.669Z,51.87
2018-02-06T20:48:00.202Z,46.27
2018-02-06T20:50:27.759Z,50.97
2018-02-06T20:52:55.318Z,42.20
2018-02-06T20:55:22.871Z,47.60
2018-02-06T20:57:50.419Z,51.27
2018-02-06T21:00:18.751Z,49.53
2018-02-06T21:02:46.288Z,53.43
2018-02-06T21:05:13.850Z,55.13
2018-02-06T21:07:41.392Z,53.17
2018-02-06T21:10:08.955Z,51.63
2018-02-06T21:12:36.527Z,52.57
2018-02-06T21:15:04.119Z,55.60
2018-02-06T21:17:31.670Z,51.40
2018-02-06T21:19:59.234Z,47.97
2018-02-06T21:22:26.774Z,49.73
2018-02-06T21:24:54.338Z,58.07
2018-02-06T21:27:21.877Z,46.27
2018-02-06T21:29:49.450Z,43.87
2018-02-06T21:32:16.990Z,49.83
2018-02-06T21:34:44.552Z,54.07
2018-02-06T21:37:12.094Z,50.10
2018-02-06T21:39:40.424Z,51.53
2018-02-06T21:42:07.966Z,45.27
2018-02-06T21:44:35.534Z,52.10
2018-02-06T21:47:03.182Z,50.30
2018-02-06T21:49:30.762Z,50.63
2018-02-06T21:51:58.318Z,53.83
2018-02-06T21:54:25.881Z,48.83
2018-02-06T21:56:53.417Z,48.90
2018-02-06T21:59:20.969Z,44.77
2018-02-06T22:01:48.506Z,47.17
2018-02-06T22:04:16.830Z,43.23
2018-02-06T22:06:44.359Z,44.17
2018-02-06T22:09:11.919Z,48.03
2018-02-06T22:11:39.455Z,43.53
2018-02-06T22:14:07.758Z,56.10
2018-02-06T22:16:35.321Z,50.40
2018-02-06T22:19:02.862Z,44.37
2018-02-06T22:21:31.189Z,55.00
2018-02-06T22:23:58.750Z,52.03
2018-02-06T22:26:26.314Z,42.63
2018-02-06T22:28:53.845Z,52.50
2018-02-06T22:31:21.401Z,57.07
2018-02-06T22:33:48.937Z,46.10
2018-02-06T22:36:17.260Z,45.60
2018-02-06T22:38:44.797Z,51.60
2018-02-06T22:41:13.129Z,42.73
2018-02-06T22:43:40.734Z,51.97
2018-02-06T22:46:08.316Z,52.40
2018-02-06T22:48:35.934Z,47.33
2018-02-06T22:51:04.288Z,50.13
2018-02-06T22:53:31.826Z,62.10
2018-02-06T22:55:59.390Z,53.30
2018-02-06T22:58:26.917Z,51.43
2018-02-06T23:00:55.257Z,52.13
2018-02-06T23:03:23.562Z,52.80
2018-02-06T23:05:51.123Z,54.70
2018-02-06T23:08:18.667Z,52.55
2018-02-06T23:10:46.998Z,57.15
2018-02-06T23:13:14.527Z,50.43
2018-02-06T23:15:42.085Z,53.80
2018-02-06T23:18:09.625Z,53.53
2018-02-06T23:20:37.956Z,43.57
2018-02-06T23:23:05.497Z,55.10
2018-02-06T23:25:33.062Z,59.40
2018-02-06T23:28:00.597Z,54.87
2018-02-06T23:30:28.167Z,55.50
2018-02-06T23:32:56.503Z,48.00
2018-02-06T23:35:24.075Z,55.03
2018-02-06T23:37:52.381Z,50.43
2018-02-06T23:40:19.934Z,52.03
2018-02-06T23:42:47.478Z,60.53
2018-02-06T23:45:15.081Z,53.13
2018-02-06T23:47:42.622Z,57.35
2018-02-06T23:50:10.211Z,63.67
2018-02-06T23:52:37.753Z,53.85
2018-02-06T23:55:05.331Z,53.05
2018-02-06T23:57:32.878Z,54.08
